Time;durP1;ratioP1;P1;durP2;ratioP2;P2;SDS_P1;SDS_P2;PMS_P1;PMS_P2;Temp;Humidity;BMP_temperature;BMP_pressure;BME280_temperature;BME280_humidity;BME280_pressure;Samples;Min_cycle;Max_cycle;Signal;HPM_P1;HPM_P2
2024/01/24 07:04:22;;;;;;;;;;;16.00;68.10;;;;;;6279627;22;19926;-74
2024/01/24 07:06:48;;;;;;;;;;;16.00;68.10;;;;;;6275160;22;19907;-75
2024/01/24 07:09:15;;;;;;;;;;;16.00;68.40;;;;;;6274434;22;19903;-74
2024/01/24 07:11:41;;;;;;;;;;;16.10;68.50;;;;;;6274706;22;19903;-74
2024/01/24 07:14:07;;;;;;;;;;;16.00;68.50;;;;;;6274403;22;20305;-74
2024/01/24 07:16:33;;;;;;;;;;;16.10;68.30;;;;;;6274337;22;19908;-74
2024/01/24 07:18:59;;;;;;;;;;;16.00;68.40;;;;;;6274759;22;19927;-74
2024/01/24 07:21:25;;;;;;;;;;;16.10;68.20;;;;;;6274332;22;19966;-74
2024/01/24 07:23:51;;;;;;;;;;;16.00;68.10;;;;;;6276408;22;19910;-73
2024/01/24 07:26:17;;;;;;;;;;;16.00;68.10;;;;;;6276387;22;20269;-74
2024/01/24 07:28:43;;;;;;;;;;;16.30;68.20;;;;;;6276429;22;19914;-73
2024/01/24 07:31:09;;;;;;;;;;;15.90;68.10;;;;;;6276325;22;19907;-74
2024/01/24 07:33:35;;;;;;;;;;;16.00;67.90;;;;;;6276311;22;20234;-74
2024/01/24 07:36:01;;;;;;;;;;;16.00;67.70;;;;;;6276309;22;19950;-74
2024/01/24 07:38:26;;;;;;;;;;;16.00;67.30;;;;;;6249519;22;20215;-74
2024/01/24 07:40:52;;;;;;;;;;;15.90;67.60;;;;;;6275690;22;19915;-73
2024/01/24 07:43:19;;;;;;;;;;;16.00;67.50;;;;;;6276077;22;19904;-73
2024/01/24 07:45:45;;;;;;;;;;;16.20;67.50;;;;;;6249356;22;19995;-74
2024/01/24 07:48:14;;;;;;;;;;;15.90;67.30;;;;;;6275796;22;19904;-73
2024/01/24 07:50:41;;;;;;;;;;;16.00;66.90;;;;;;6275696;22;20356;-76
2024/01/24 07:53:06;;;;;;;;;;;16.00;68.00;;;;;;6275645;22;19903;-77
2024/01/24 07:55:32;;;;;;;;;;;15.90;67.00;;;;;;6276766;22;19992;-77
2024/01/24 07:57:57;;;;;;;;;;;16.10;66.90;;;;;;6277415;22;19903;-77
2024/01/24 08:00:23;;;;;;;;;;;15.90;67.10;;;;;;6277395;22;19915;-76
2024/01/24 08:02:48;;;;;;;;;;;16.00;66.60;;;;;;6278177;22;19903;-74
2024/01/24 08:05:14;;;;;;;;;;;15.90;67.00;;;;;;6277198;22;20006;-80
2024/01/24 08:07:42;;;;;;;;;;;16.00;66.70;;;;;;6277561;22;19935;-75
2024/01/24 08:10:10;;;;;;;;;;;15.90;66.60;;;;;;6277296;22;19934;-73
2024/01/24 08:12:39;;;;;;;;;;;15.90;65.50;;;;;;6277306;22;19904;-74
2024/01/24 08:15:07;;;;;;;;;;;15.90;62.10;;;;;;6277236;22;19918;-76
2024/01/24 08:17:34;;;;;;;;;;;15.80;65.40;;;;;;6277156;22;19911;-74
2024/01/24 08:20:00;;;;;;;;;;;15.90;66.80;;;;;;6287419;22;19911;-74
2024/01/24 08:22:29;;;;;;;;;;;15.90;66.50;;;;;;6277129;22;20352;-77
2024/01/24 08:24:54;;;;;;;;;;;15.90;61.90;;;;;;6277842;22;19904;-76
2024/01/24 08:27:20;;;;;;;;;;;15.80;66.30;;;;;;6277102;22;19910;-75
2024/01/24 08:29:45;;;;;;;;;;;15.80;66.50;;;;;;6280142;22;19910;-76
2024/01/24 08:32:11;;;;;;;;;;;15.80;66.70;;;;;;6284339;22;19903;-83
2024/01/24 08:34:37;;;;;;;;;;;15.80;66.00;;;;;;6277303;22;19909;-73
2024/01/24 08:37:03;;;;;;;;;;;15.80;66.20;;;;;;6277882;22;19937;-75
2024/01/24 08:39:29;;;;;;;;;;;15.80;66.00;;;;;;6277754;22;19911;-80
2024/01/24 08:41:55;;;;;;;;;;;15.80;66.20;;;;;;6277184;22;20368;-77
2024/01/24 08:44:21;;;;;;;;;;;15.80;66.70;;;;;;6277535;22;19903;-73
2024/01/24 08:46:49;;;;;;;;;;;15.70;66.00;;;;;;6277520;22;19910;-79
2024/01/24 08:49:15;;;;;;;;;;;15.80;66.00;;;;;;6277410;22;19907;-77
2024/01/24 08:51:41;;;;;;;;;;;15.70;66.00;;;;;;6277523;22;19949;-75
2024/01/24 08:54:08;;;;;;;;;;;15.70;66.00;;;;;;6277682;22;19904;-76
2024/01/24 08:56:34;;;;;;;;;;;15.70;65.90;;;;;;6277297;22;19907;-75
2024/01/24 08:58:59;;;;;;;;;;;15.70;65.80;;;;;;6277414;22;19989;-76
2024/01/24 09:01:26;;;;;;;;;;;15.70;65.70;;;;;;6277119;22;19943;-76
2024/01/24 09:03:53;;;;;;;;;;;15.80;66.00;;;;;;6277230;22;19903;-76
2024/01/24 09:06:20;;;;;;;;;;;15.70;65.70;;;;;;6287256;22;19910;-76
2024/01/24 09:08:51;;;;;;;;;;;15.60;65.90;;;;;;6287014;22;19903;-77
2024/01/24 09:11:17;;;;;;;;;;;15.70;66.00;;;;;;6286992;22;19904;-76
2024/01/24 09:13:43;;;;;;;;;;;15.60;65.90;;;;;;6287051;22;19947;-76
2024/01/24 09:16:09;;;;;;;;;;;15.60;65.80;;;;;;6276971;22;20532;-76
2024/01/24 09:18:35;;;;;;;;;;;15.60;65.70;;;;;;6277248;22;19934;-76
2024/01/24 09:21:01;;;;;;;;;;;15.70;65.90;;;;;;6277753;22;19912;-76
2024/01/24 09:23:27;;;;;;;;;;;15.70;65.80;;;;;;6277104;22;20226;-77
2024/01/24 09:25:52;;;;;;;;;;;15.70;65.80;;;;;;6276551;22;20302;-76
2024/01/24 09:28:18;;;;;;;;;;;15.70;66.00;;;;;;6276467;22;19911;-76
2024/01/24 09:30:44;;;;;;;;;;;15.60;65.80;;;;;;6276725;22;20274;-77
2024/01/24 09:33:09;;;;;;;;;;;15.60;65.50;;;;;;6276570;22;19937;-78
2024/01/24 09:35:35;;;;;;;;;;;15.60;65.60;;;;;;6276469;22;19981;-80
2024/01/24 09:38:00;;;;;;;;;;;15.60;66.00;;;;;;6276685;22;19950;-73
2024/01/24 09:40:26;;;;;;;;;;;15.70;65.70;;;;;;6278379;22;19997;-78
2024/01/24 09:42:51;;;;;;;;;;;15.60;65.80;;;;;;6276448;22;19909;-75
2024/01/24 09:45:17;;;;;;;;;;;15.60;65.80;;;;;;6276604;22;20314;-82
2024/01/24 09:47:46;;;;;;;;;;;15.30;65.40;;;;;;6276496;22;19907;-75
2024/01/24 09:50:11;;;;;;;;;;;15.60;65.80;;;;;;6276976;22;20355;-75
2024/01/24 09:52:37;;;;;;;;;;;16.00;66.10;;;;;;6276288;22;19935;-78
2024/01/24 09:55:04;;;;;;;;;;;15.60;65.90;;;;;;6276878;22;20262;-77
2024/01/24 09:57:31;;;;;;;;;;;15.60;64.40;;;;;;6276774;22;20292;-76
2024/01/24 09:59:57;;;;;;;;;;;15.70;65.60;;;;;;6276483;22;19911;-76
2024/01/24 10:02:25;;;;;;;;;;;15.70;65.40;;;;;;6276304;22;19907;-77
2024/01/24 10:04:51;;;;;;;;;;;15.60;65.70;;;;;;6276067;22;20322;-77
2024/01/24 10:07:18;;;;;;;;;;;15.70;65.60;;;;;;6276166;22;19982;-77
2024/01/24 10:09:43;;;;;;;;;;;15.60;65.80;;;;;;6276110;22;20344;-76
2024/01/24 10:12:09;;;;;;;;;;;15.70;65.50;;;;;;6276139;22;19907;-76
2024/01/24 10:14:35;;;;;;;;;;;15.60;65.30;;;;;;6276106;22;19953;-76
2024/01/24 10:17:03;;;;;;;;;;;15.70;65.60;;;;;;6276143;22;19907;-76
2024/01/24 10:19:29;;;;;;;;;;;15.60;65.80;;;;;;6276199;22;19935;-73
2024/01/24 10:21:54;;;;;;;;;;;15.70;65.40;;;;;;6275915;22;20315;-73
2024/01/24 10:24:21;;;;;;;;;;;15.60;66.00;;;;;;6275990;22;20036;-73
2024/01/24 10:26:46;;;;;;;;;;;15.60;66.00;;;;;;6275992;22;19910;-72
2024/01/24 10:29:12;;;;;;;;;;;15.60;65.80;;;;;;6276094;22;20295;-72
2024/01/24 10:31:38;;;;;;;;;;;15.70;66.30;;;;;;6276063;22;20239;-72
2024/01/24 10:34:03;;;;;;;;;;;15.60;66.00;;;;;;6275928;22;19947;-72
2024/01/24 10:36:30;;;;;;;;;;;15.70;65.90;;;;;;6275956;22;19903;-72
2024/01/24 10:39:08;;;;;;;;;;;15.70;66.10;;;;;;6276503;22;19910;-72
2024/01/24 10:41:40;;;;;;;;;;;15.70;66.30;;;;;;6275878;22;20380;-72
2024/01/24 10:44:09;;;;;;;;;;;15.70;61.40;;;;;;6276360;22;20294;-73
2024/01/24 10:46:38;;;;;;;;;;;15.80;66.10;;;;;;6275861;22;19935;-73
2024/01/24 10:49:05;;;;;;;;;;;15.70;61.60;;;;;;6276592;22;19903;-73
2024/01/24 10:51:31;;;;;;;;;;;15.70;65.70;;;;;;6276100;22;19938;-72
2024/01/24 10:53:56;;;;;;;;;;;15.70;66.10;;;;;;6275754;22;19903;-72
2024/01/24 10:56:23;;;;;;;;;;;15.70;65.70;;;;;;6275767;22;20331;-72
2024/01/24 10:58:49;;;;;;;;;;;15.60;66.70;;;;;;6275721;22;20341;-72
2024/01/24 11:01:14;;;;;;;;;;;15.70;65.50;;;;;;6275630;22;19911;-73
2024/01/24 11:03:40;;;;;;;;;;;15.70;66.10;;;;;;6275779;22;19910;-73
2024/01/24 11:06:11;;;;;;;;;;;15.70;65.60;;;;;;6276312;22;20352;-72
2024/01/24 11:08:36;;;;;;;;;;;15.70;65.50;;;;;;6275849;22;19904;-73
2024/01/24 11:11:04;;;;;;;;;;;15.70;65.80;;;;;;6275653;22;19908;-71
2024/01/24 11:13:33;;;;;;;;;;;15.70;65.80;;;;;;6275784;22;19903;-72
2024/01/24 11:15:59;;;;;;;;;;;15.80;65.80;;;;;;6275786;22;19927;-73
2024/01/24 11:18:25;;;;;;;;;;;15.80;65.70;;;;;;6275845;22;19911;-73
2024/01/24 11:20:52;;;;;;;;;;;15.80;65.60;;;;;;6275666;22;19911;-70
2024/01/24 11:23:38;;;;;;;;;;;15.80;65.70;;;;;;6275641;22;19910;-71
2024/01/24 11:26:04;;;;;;;;;;;15.80;61.10;;;;;;6275784;22;19927;-83
2024/01/24 11:28:29;;;;;;;;;;;15.70;65.50;;;;;;6275787;22;19974;-70
2024/01/24 11:30:55;;;;;;;;;;;15.70;65.50;;;;;;6276984;22;19910;-70
2024/01/24 11:33:20;;;;;;;;;;;15.70;64.80;;;;;;6278381;22;19903;-78
2024/01/24 11:35:47;;;;;;;;;;;15.80;65.20;;;;;;6277572;22;19911;-76
2024/01/24 11:38:28;;;;;;;;;;;15.70;65.50;;;;;;6278132;22;20227;-75
2024/01/24 11:41:23;;;;;;;;;;;15.80;60.90;;;;;;6287640;22;19911;-74
2024/01/24 11:43:49;;;;;;;;;;;15.80;60.90;;;;;;6277914;22;19903;-74
2024/01/24 11:46:15;;;;;;;;;;;15.80;65.50;;;;;;6278338;22;20254;-76
2024/01/24 11:48:40;;;;;;;;;;;15.80;65.30;;;;;;6277571;22;19909;-75
2024/01/24 11:51:10;;;;;;;;;;;15.90;66.20;;;;;;6278055;22;20302;-75
2024/01/24 11:53:35;;;;;;;;;;;15.80;60.80;;;;;;6277500;22;19904;-76
2024/01/24 11:56:05;;;;;;;;;;;15.80;65.40;;;;;;6277338;22;19903;-74
2024/01/24 11:58:30;;;;;;;;;;;15.80;61.00;;;;;;6277352;22;19903;-74
2024/01/24 12:00:59;;;;;;;;;;;15.90;65.20;;;;;;6277185;22;19919;-76
2024/01/24 12:03:25;;;;;;;;;;;15.90;64.60;;;;;;6277855;22;20354;-74
2024/01/24 12:05:50;;;;;;;;;;;15.90;65.30;;;;;;6277183;22;19950;-73
2024/01/24 12:08:16;;;;;;;;;;;15.90;65.20;;;;;;6277267;22;19903;-77
2024/01/24 12:10:41;;;;;;;;;;;15.90;65.00;;;;;;6277239;22;19903;-75
2024/01/24 12:13:08;;;;;;;;;;;15.90;64.80;;;;;;6277922;22;20325;-76
2024/01/24 12:15:34;;;;;;;;;;;15.90;64.90;;;;;;6277853;22;19904;-75
2024/01/24 12:18:01;;;;;;;;;;;15.90;64.90;;;;;;6277798;22;19903;-75
2024/01/24 12:20:27;;;;;;;;;;;15.90;65.20;;;;;;6277685;22;19946;-75
2024/01/24 12:22:52;;;;;;;;;;;15.90;65.80;;;;;;6276932;22;19907;-77
2024/01/24 12:25:18;;;;;;;;;;;16.20;65.00;;;;;;6277154;22;19990;-77
2024/01/24 12:27:43;;;;;;;;;;;15.90;65.00;;;;;;6277119;22;19972;-75
2024/01/24 12:30:10;;;;;;;;;;;15.90;65.20;;;;;;6277630;22;19903;-75
2024/01/24 12:32:35;;;;;;;;;;;15.80;63.50;;;;;;6277045;22;19904;-76
2024/01/24 12:35:01;;;;;;;;;;;15.90;65.30;;;;;;6276980;22;20346;-75
2024/01/24 12:37:27;;;;;;;;;;;17.60;66.20;;;;;;6250214;22;19911;-76
2024/01/24 12:39:54;;;;;;;;;;;15.90;65.50;;;;;;6276813;22;19908;-76
2024/01/24 12:42:19;;;;;;;;;;;15.60;65.10;;;;;;6276651;22;20307;-76
2024/01/24 12:44:50;;;;;;;;;;;16.00;65.20;;;;;;6276979;22;19922;-70
2024/01/24 12:47:16;;;;;;;;;;;15.80;65.50;;;;;;6276921;22;19903;-71
2024/01/24 12:49:41;;;;;;;;;;;15.50;64.70;;;;;;6277112;22;19910;-71
2024/01/24 12:52:07;;;;;;;;;;;15.90;64.90;;;;;;6277017;22;19993;-72
2024/01/24 12:54:33;;;;;;;;;;;16.00;65.30;;;;;;6277426;22;19907;-72
2024/01/24 12:56:59;;;;;;;;;;;16.00;65.10;;;;;;6277421;22;19911;-71
2024/01/24 12:59:25;;;;;;;;;;;15.90;65.00;;;;;;6277810;22;19903;-71
2024/01/24 13:01:55;;;;;;;;;;;15.90;64.70;;;;;;6277212;22;19990;-71
2024/01/24 13:04:21;;;;;;;;;;;16.00;65.00;;;;;;6285568;22;19907;-71
2024/01/24 13:06:48;;;;;;;;;;;16.00;65.30;;;;;;6287348;22;19910;-71
2024/01/24 13:09:14;;;;;;;;;;;16.00;65.00;;;;;;6276941;22;19904;-71
2024/01/24 13:11:40;;;;;;;;;;;15.90;65.10;;;;;;6277381;22;19978;-71
2024/01/24 13:14:06;;;;;;;;;;;16.00;65.30;;;;;;6276640;22;19927;-71
2024/01/24 13:16:31;;;;;;;;;;;16.00;65.30;;;;;;6276607;22;19903;-71
2024/01/24 13:18:57;;;;;;;;;;;15.90;65.10;;;;;;6276566;22;19934;-71
2024/01/24 13:21:22;;;;;;;;;;;15.90;65.30;;;;;;6276310;22;19926;-71
2024/01/24 13:23:48;;;;;;;;;;;16.00;65.90;;;;;;6277308;22;19907;-71
2024/01/24 13:26:13;;;;;;;;;;;15.90;65.20;;;;;;6276479;22;19907;-71
2024/01/24 13:28:39;;;;;;;;;;;16.00;65.00;;;;;;6277034;22;19904;-71
2024/01/24 13:31:05;;;;;;;;;;;16.20;65.40;;;;;;6276536;22;19903;-72
2024/01/24 13:33:31;;;;;;;;;;;16.00;65.00;;;;;;6276251;22;19949;-72
2024/01/24 13:35:56;;;;;;;;;;;15.90;65.20;;;;;;6276410;22;20280;-72
2024/01/24 13:38:22;;;;;;;;;;;15.90;65.20;;;;;;6276387;22;20336;-72
2024/01/24 13:40:47;;;;;;;;;;;15.90;65.30;;;;;;6276867;22;19911;-72
2024/01/24 13:43:13;;;;;;;;;;;15.90;65.30;;;;;;6276332;22;19953;-72
2024/01/24 13:45:38;;;;;;;;;;;15.90;65.30;;;;;;6276211;22;19910;-72
2024/01/24 13:48:04;;;;;;;;;;;15.90;65.20;;;;;;6276208;22;19903;-72
2024/01/24 13:50:29;;;;;;;;;;;15.90;64.20;;;;;;6276766;22;20246;-72
2024/01/24 13:52:55;;;;;;;;;;;16.00;65.30;;;;;;6276093;22;19904;-72
2024/01/24 13:55:21;;;;;;;;;;;15.90;65.10;;;;;;6276198;22;19912;-73
2024/01/24 13:57:48;;;;;;;;;;;15.90;65.20;;;;;;6276854;22;19926;-72
2024/01/24 14:00:13;;;;;;;;;;;15.90;64.80;;;;;;6276316;22;19918;-72
2024/01/24 14:02:39;;;;;;;;;;;16.00;64.80;;;;;;6275909;22;19994;-71
2024/01/24 14:05:05;;;;;;;;;;;15.90;65.30;;;;;;6275948;22;19915;-72
2024/01/24 14:07:30;;;;;;;;;;;15.90;64.50;;;;;;6276100;22;19910;-73
2024/01/24 14:09:56;;;;;;;;;;;16.00;65.30;;;;;;6276119;22;19903;-72
2024/01/24 14:12:22;;;;;;;;;;;16.10;65.20;;;;;;6276016;22;19903;-72
2024/01/24 14:14:47;;;;;;;;;;;15.80;64.90;;;;;;6276723;22;19934;-72
2024/01/24 14:17:12;;;;;;;;;;;16.00;65.10;;;;;;6276044;22;19931;-77
2024/01/24 14:19:38;;;;;;;;;;;15.80;64.90;;;;;;6276060;22;19904;-71
2024/01/24 14:22:04;;;;;;;;;;;15.90;64.60;;;;;;6275845;22;19911;-71
2024/01/24 14:24:29;;;;;;;;;;;15.90;65.00;;;;;;6276588;22;20339;-72
2024/01/24 14:26:55;;;;;;;;;;;15.90;65.10;;;;;;6276029;22;20220;-72
2024/01/24 14:29:22;;;;;;;;;;;15.80;64.50;;;;;;6275915;22;19903;-72
2024/01/24 14:31:47;;;;;;;;;;;15.80;64.80;;;;;;6275900;22;19903;-72
2024/01/24 14:34:13;;;;;;;;;;;15.80;65.00;;;;;;6275918;22;20472;-72
2024/01/24 14:36:38;;;;;;;;;;;15.80;64.60;;;;;;6276160;22;19904;-72
2024/01/24 14:39:04;;;;;;;;;;;15.80;64.80;;;;;;6248687;22;19926;-72
2024/01/24 14:41:30;;;;;;;;;;;15.80;64.60;;;;;;6275591;22;19996;-72
2024/01/24 14:43:56;;;;;;;;;;;15.90;64.90;;;;;;6276959;22;20270;-72
2024/01/24 14:46:21;;;;;;;;;;;15.90;64.70;;;;;;6275733;22;19914;-72
2024/01/24 14:48:48;;;;;;;;;;;16.00;64.80;;;;;;6275728;22;19982;-72
2024/01/24 14:51:13;;;;;;;;;;;15.80;65.00;;;;;;6275772;22;19912;-73
2024/01/24 14:53:39;;;;;;;;;;;15.70;64.60;;;;;;6276130;22;19907;-72
2024/01/24 14:56:05;;;;;;;;;;;15.80;65.00;;;;;;6275814;22;19903;-72
2024/01/24 14:58:33;;;;;;;;;;;15.80;63.90;;;;;;6275672;22;19907;-72
2024/01/24 15:00:59;;;;;;;;;;;15.80;64.80;;;;;;6275655;22;19919;-73
2024/01/24 15:03:24;;;;;;;;;;;15.80;64.40;;;;;;6275564;22;19904;-72
2024/01/24 15:05:50;;;;;;;;;;;15.80;64.60;;;;;;6276805;22;19953;-72
2024/01/24 15:08:15;;;;;;;;;;;15.80;64.60;;;;;;6277744;22;19957;-72
2024/01/24 15:10:41;;;;;;;;;;;15.80;64.80;;;;;;6277675;22;19911;-71
2024/01/24 15:13:06;;;;;;;;;;;15.80;64.90;;;;;;6278250;22;19903;-72
2024/01/24 15:15:33;;;;;;;;;;;15.70;64.50;;;;;;6277555;22;20216;-72
2024/01/24 15:17:58;;;;;;;;;;;15.80;64.80;;;;;;6277615;22;19910;-72
2024/01/24 15:20:24;;;;;;;;;;;15.70;64.40;;;;;;6278121;22;19907;-71
2024/01/24 15:22:51;;;;;;;;;;;15.70;64.50;;;;;;6278340;22;20273;-72
2024/01/24 15:25:17;;;;;;;;;;;15.70;64.70;;;;;;6278378;22;19926;-72
2024/01/24 15:27:43;;;;;;;;;;;15.70;64.70;;;;;;6277713;22;20342;-73
2024/01/24 15:30:10;;;;;;;;;;;15.50;64.40;;;;;;6277578;22;19910;-72
2024/01/24 15:32:35;;;;;;;;;;;15.80;63.70;;;;;;6277510;22;19990;-72
2024/01/24 15:35:01;;;;;;;;;;;15.70;64.70;;;;;;6277614;22;19934;-72
2024/01/24 15:37:26;;;;;;;;;;;15.70;64.70;;;;;;6277501;22;19904;-72
2024/01/24 15:39:52;;;;;;;;;;;15.60;64.70;;;;;;6278179;22;19908;-72
2024/01/24 15:42:19;;;;;;;;;;;15.70;64.50;;;;;;6277999;22;19911;-72
2024/01/24 15:44:46;;;;;;;;;;;15.70;64.50;;;;;;6277963;22;19926;-72
2024/01/24 15:47:12;;;;;;;;;;;15.70;64.40;;;;;;6277443;22;19903;-72
2024/01/24 15:49:37;;;;;;;;;;;15.70;64.60;;;;;;6277394;22;19938;-71
2024/01/24 15:52:03;;;;;;;;;;;15.70;64.40;;;;;;6277420;22;19913;-71
2024/01/24 15:54:29;;;;;;;;;;;15.60;63.80;;;;;;6278093;22;19974;-72
2024/01/24 15:56:54;;;;;;;;;;;15.60;64.70;;;;;;6277203;22;20349;-71
2024/01/24 15:59:20;;;;;;;;;;;15.60;64.20;;;;;;6277285;22;19976;-71
2024/01/24 16:01:48;;;;;;;;;;;15.70;64.40;;;;;;6277077;22;19911;-71
2024/01/24 16:04:17;;;;;;;;;;;15.60;64.60;;;;;;6277020;22;19910;-72
2024/01/24 16:06:43;;;;;;;;;;;15.60;64.30;;;;;;6277386;22;19934;-72
2024/01/24 16:09:08;;;;;;;;;;;15.70;64.70;;;;;;6277154;22;20323;-71
2024/01/24 16:11:34;;;;;;;;;;;15.60;64.40;;;;;;6277404;22;20250;-70
2024/01/24 16:13:59;;;;;;;;;;;15.90;64.60;;;;;;6277276;22;19904;-69
2024/01/24 16:16:25;;;;;;;;;;;15.60;64.50;;;;;;6276453;22;19911;-69
2024/01/24 16:18:51;;;;;;;;;;;15.60;64.50;;;;;;6250196;22;19903;-70
2024/01/24 16:21:17;;;;;;;;;;;15.60;64.40;;;;;;6276906;22;19961;-69
2024/01/24 16:23:43;;;;;;;;;;;15.60;64.30;;;;;;6277756;22;19911;-69
2024/01/24 16:26:08;;;;;;;;;;;15.60;64.40;;;;;;6277034;22;20246;-71
2024/01/24 16:28:34;;;;;;;;;;;15.50;64.20;;;;;;6277093;22;20235;-70
2024/01/24 16:30:59;;;;;;;;;;;15.60;64.60;;;;;;6276983;22;19939;-75
2024/01/24 16:33:25;;;;;;;;;;;15.50;64.40;;;;;;6276962;22;19903;-71
2024/01/24 16:35:50;;;;;;;;;;;15.50;64.20;;;;;;6277586;22;19903;-70
2024/01/24 16:38:16;;;;;;;;;;;15.60;64.40;;;;;;6276945;22;19950;-70
2024/01/24 16:40:41;;;;;;;;;;;15.50;64.20;;;;;;6276822;22;19917;-71
2024/01/24 16:43:07;;;;;;;;;;;15.50;64.20;;;;;;6276983;22;19907;-70
2024/01/24 16:45:32;;;;;;;;;;;15.60;64.40;;;;;;6277432;22;19903;-70
2024/01/24 16:47:59;;;;;;;;;;;15.50;64.00;;;;;;6277372;22;19910;-70
2024/01/24 16:50:24;;;;;;;;;;;15.40;64.10;;;;;;6277352;22;19910;-70
2024/01/24 16:52:51;;;;;;;;;;;15.40;64.20;;;;;;6277418;22;19934;-71
2024/01/24 16:55:17;;;;;;;;;;;15.40;64.10;;;;;;6276319;22;19903;-70
2024/01/24 16:57:43;;;;;;;;;;;15.40;64.20;;;;;;6276893;22;19938;-70
2024/01/24 17:00:09;;;;;;;;;;;15.50;64.40;;;;;;6277350;22;19904;-71
2024/01/24 17:02:34;;;;;;;;;;;15.30;63.60;;;;;;6286996;22;19950;-69
2024/01/24 17:05:03;;;;;;;;;;;15.40;64.20;;;;;;6276555;22;20219;-70
2024/01/24 17:07:29;;;;;;;;;;;15.50;64.40;;;;;;6277182;22;20231;-70
2024/01/24 17:09:55;;;;;;;;;;;15.50;64.40;;;;;;6276721;22;19903;-70
2024/01/24 17:12:21;;;;;;;;;;;15.30;64.10;;;;;;6276365;22;19910;-70
2024/01/24 17:14:47;;;;;;;;;;;15.50;64.00;;;;;;6277717;22;20013;-70
2024/01/24 17:17:13;;;;;;;;;;;15.40;64.40;;;;;;6276616;22;19907;-69
2024/01/24 17:19:38;;;;;;;;;;;15.40;64.10;;;;;;6276644;22;19910;-69
2024/01/24 17:22:04;;;;;;;;;;;15.40;64.00;;;;;;6276459;22;19918;-69
2024/01/24 17:24:29;;;;;;;;;;;15.40;64.30;;;;;;6276566;22;20390;-69
2024/01/24 17:26:54;;;;;;;;;;;15.30;64.20;;;;;;6276552;22;19910;-72
2024/01/24 17:29:20;;;;;;;;;;;15.40;64.20;;;;;;6275881;22;19926;-70
2024/01/24 17:31:46;;;;;;;;;;;15.40;64.70;;;;;;6276568;22;19903;-70
2024/01/24 17:34:12;;;;;;;;;;;15.30;64.40;;;;;;6276456;22;20239;-70
2024/01/24 17:36:38;;;;;;;;;;;15.40;63.90;;;;;;6276502;22;19910;-70
2024/01/24 17:39:04;;;;;;;;;;;15.30;63.60;;;;;;6276453;22;19907;-72
2024/01/24 17:41:30;;;;;;;;;;;15.20;64.20;;;;;;6276873;22;20223;-70
2024/01/24 17:43:57;;;;;;;;;;;15.30;64.00;;;;;;6276647;22;20326;-70
2024/01/24 17:46:23;;;;;;;;;;;15.20;64.20;;;;;;6276456;22;19923;-71
2024/01/24 17:48:49;;;;;;;;;;;15.30;64.30;;;;;;6276974;22;19910;-70
2024/01/24 17:51:15;;;;;;;;;;;15.20;64.40;;;;;;6276937;22;19904;-71
2024/01/24 17:53:42;;;;;;;;;;;15.30;64.30;;;;;;6276825;22;19903;-71
2024/01/24 17:56:07;;;;;;;;;;;15.30;64.00;;;;;;6276737;22;19904;-71
2024/01/24 17:58:35;;;;;;;;;;;15.20;64.40;;;;;;6276711;22;19938;-71
2024/01/24 18:01:01;;;;;;;;;;;15.30;64.10;;;;;;6276557;22;19912;-73
2024/01/24 18:03:27;;;;;;;;;;;15.20;64.00;;;;;;6276783;22;20238;-72
2024/01/24 18:05:53;;;;;;;;;;;15.30;64.60;;;;;;6276363;22;19922;-71
2024/01/24 18:08:19;;;;;;;;;;;15.20;64.60;;;;;;6276707;22;20227;-71
2024/01/24 18:10:45;;;;;;;;;;;15.30;64.40;;;;;;6276617;22;19904;-71
2024/01/24 18:13:11;;;;;;;;;;;15.20;64.70;;;;;;6276554;22;19910;-71
2024/01/24 18:15:36;;;;;;;;;;;15.20;64.60;;;;;;6276533;22;19903;-71
2024/01/24 18:18:03;;;;;;;;;;;15.20;64.60;;;;;;6276593;22;19903;-71
2024/01/24 18:20:32;;;;;;;;;;;15.20;63.70;;;;;;6276592;22;19965;-71
2024/01/24 18:22:58;;;;;;;;;;;15.20;60.90;;;;;;6276473;22;19941;-71
2024/01/24 18:25:25;;;;;;;;;;;15.20;64.70;;;;;;6276115;22;20307;-71
2024/01/24 18:27:51;;;;;;;;;;;15.20;64.60;;;;;;6276518;22;19903;-71
2024/01/24 18:30:17;;;;;;;;;;;15.10;64.70;;;;;;6275793;22;19979;-71
2024/01/24 18:32:43;;;;;;;;;;;15.10;64.50;;;;;;6275970;22;20341;-71
2024/01/24 18:35:08;;;;;;;;;;;15.20;64.50;;;;;;6275876;22;19903;-71
2024/01/24 18:37:34;;;;;;;;;;;15.20;64.50;;;;;;6275962;22;19907;-70
2024/01/24 18:40:01;;;;;;;;;;;15.20;64.60;;;;;;6275515;22;19903;-70
2024/01/24 18:42:26;;;;;;;;;;;15.10;64.60;;;;;;6275884;22;19989;-72
2024/01/24 18:44:52;;;;;;;;;;;15.10;64.90;;;;;;6275772;22;19934;-71
2024/01/24 18:47:17;;;;;;;;;;;15.00;64.60;;;;;;6248617;22;19911;-72
2024/01/24 18:49:43;;;;;;;;;;;15.10;64.80;;;;;;6275753;22;20296;-75
2024/01/24 18:52:09;;;;;;;;;;;15.10;65.00;;;;;;6277840;22;19909;-80
2024/01/24 18:54:35;;;;;;;;;;;15.10;64.80;;;;;;6275757;22;20299;-70
2024/01/24 18:57:01;;;;;;;;;;;15.10;64.30;;;;;;6276262;22;19903;-71
2024/01/24 18:59:27;;;;;;;;;;;15.00;64.80;;;;;;6276388;22;19986;-71
2024/01/24 19:01:53;;;;;;;;;;;15.10;64.10;;;;;;6276076;22;20389;-71
2024/01/24 19:04:19;;;;;;;;;;;15.10;64.80;;;;;;6275860;22;20212;-71
2024/01/24 19:06:44;;;;;;;;;;;15.20;64.50;;;;;;6286091;22;20230;-71
2024/01/24 19:09:10;;;;;;;;;;;15.20;64.60;;;;;;6275441;22;19978;-71
2024/01/24 19:11:36;;;;;;;;;;;15.10;64.50;;;;;;6276121;22;19931;-70
2024/01/24 19:14:03;;;;;;;;;;;15.10;64.90;;;;;;6276207;22;20267;-71
2024/01/24 19:16:30;;;;;;;;;;;15.10;64.60;;;;;;6276190;22;20242;-71
2024/01/24 19:18:59;;;;;;;;;;;14.80;64.20;;;;;;6276037;22;19903;-71
2024/01/24 19:21:25;;;;;;;;;;;15.00;60.00;;;;;;6276044;22;19911;-71
2024/01/24 19:23:51;;;;;;;;;;;15.00;64.70;;;;;;6276126;22;20196;-71
2024/01/24 19:26:17;;;;;;;;;;;15.10;64.80;;;;;;6275729;22;20234;-71
2024/01/24 19:28:45;;;;;;;;;;;15.00;64.70;;;;;;6276021;22;19910;-70
2024/01/24 19:31:11;;;;;;;;;;;15.00;64.60;;;;;;6275994;22;19926;-71
2024/01/24 19:33:38;;;;;;;;;;;15.00;64.80;;;;;;6275760;22;20307;-71
2024/01/24 19:36:05;;;;;;;;;;;15.00;64.20;;;;;;6276122;22;19903;-71
2024/01/24 19:38:30;;;;;;;;;;;15.10;64.20;;;;;;6275528;22;19926;-71
2024/01/24 19:40:56;;;;;;;;;;;15.00;64.60;;;;;;6275309;22;19918;-71
2024/01/24 19:43:22;;;;;;;;;;;15.00;64.60;;;;;;6276068;22;19903;-70
2024/01/24 19:45:48;;;;;;;;;;;15.00;64.60;;;;;;6275961;22;19910;-71
2024/01/24 19:48:13;;;;;;;;;;;15.00;65.00;;;;;;6275478;22;20013;-71
2024/01/24 19:50:39;;;;;;;;;;;14.90;64.90;;;;;;6275792;22;19910;-70
2024/01/24 19:53:06;;;;;;;;;;;15.00;64.60;;;;;;6277710;22;19927;-70
2024/01/24 19:55:32;;;;;;;;;;;14.90;64.80;;;;;;6277549;22;19932;-71
2024/01/24 19:57:58;;;;;;;;;;;14.90;64.70;;;;;;6277838;22;19910;-72
2024/01/24 20:00:24;;;;;;;;;;;15.00;64.80;;;;;;6277876;22;19961;-71
2024/01/24 20:02:50;;;;;;;;;;;14.80;64.20;;;;;;6277477;22;19942;-70
2024/01/24 20:05:16;;;;;;;;;;;14.90;64.60;;;;;;6277496;22;19923;-71
2024/01/24 20:07:43;;;;;;;;;;;14.90;64.70;;;;;;6277841;22;19903;-71
2024/01/24 20:10:09;;;;;;;;;;;14.90;64.60;;;;;;6277434;22;20314;-71
2024/01/24 20:12:35;;;;;;;;;;;14.90;64.30;;;;;;6277881;22;19907;-71
2024/01/24 20:15:01;;;;;;;;;;;14.90;64.60;;;;;;6277388;22;19907;-71
2024/01/24 20:17:27;;;;;;;;;;;14.90;65.20;;;;;;6277842;22;20230;-71
2024/01/24 20:19:53;;;;;;;;;;;15.00;64.80;;;;;;6277794;22;19933;-71
2024/01/24 20:22:19;;;;;;;;;;;14.90;64.80;;;;;;6277245;22;19911;-71
2024/01/24 20:24:45;;;;;;;;;;;14.80;64.70;;;;;;6277680;22;19903;-71
2024/01/24 20:27:11;;;;;;;;;;;14.80;64.70;;;;;;6277657;22;20044;-71
2024/01/24 20:29:37;;;;;;;;;;;14.90;64.90;;;;;;6276804;22;19903;-71
2024/01/24 20:32:03;;;;;;;;;;;14.80;64.80;;;;;;6276287;22;19907;-71
2024/01/24 20:34:29;;;;;;;;;;;14.90;63.80;;;;;;6276951;22;19926;-71
2024/01/24 20:36:55;;;;;;;;;;;14.80;64.60;;;;;;6277536;22;19903;-71
2024/01/24 20:39:22;;;;;;;;;;;14.80;64.80;;;;;;6277550;22;20238;-71
2024/01/24 20:41:48;;;;;;;;;;;14.90;64.80;;;;;;6276924;22;19912;-71
2024/01/24 20:44:15;;;;;;;;;;;14.80;64.70;;;;;;6277456;22;19986;-71
2024/01/24 20:46:41;;;;;;;;;;;14.80;64.90;;;;;;6277465;22;19903;-71
2024/01/24 20:49:07;;;;;;;;;;;14.80;65.20;;;;;;6277235;22;19910;-71
2024/01/24 20:51:33;;;;;;;;;;;14.80;64.90;;;;;;6277383;22;19982;-71
2024/01/24 20:53:59;;;;;;;;;;;14.80;64.80;;;;;;6277431;22;19907;-71
2024/01/24 20:56:25;;;;;;;;;;;14.90;64.70;;;;;;6277580;22;20285;-71
2024/01/24 20:58:52;;;;;;;;;;;14.90;65.00;;;;;;6276941;22;19904;-71
2024/01/24 21:01:18;;;;;;;;;;;14.80;64.50;;;;;;6277207;22;20246;-71
2024/01/24 21:03:44;;;;;;;;;;;14.90;64.90;;;;;;6276444;22;19904;-71
2024/01/24 21:06:10;;;;;;;;;;;14.80;65.20;;;;;;6276777;22;19937;-71
2024/01/24 21:08:36;;;;;;;;;;;14.80;65.10;;;;;;6277204;22;20366;-70
2024/01/24 21:11:03;;;;;;;;;;;14.90;65.30;;;;;;6276772;22;19903;-71
2024/01/24 21:13:31;;;;;;;;;;;14.80;64.90;;;;;;6276092;22;20276;-70